sensor_id;sensor_type;location;lat;lon;timestamp;temperature;humidity
37285;DHT22;23172;53.550;9.964;2023-03-04T00:01:30;7.70;96.90
37285;DHT22;23172;53.550;9.964;2023-03-04T00:06:32;7.60;96.80
37285;DHT22;23172;53.550;9.964;2023-03-04T00:11:35;7.70;96.70
37285;DHT22;23172;53.550;9.964;2023-03-04T00:16:37;7.80;96.60
37285;DHT22;23172;53.550;9.964;2023-03-04T00:21:39;7.80;96.50
37285;DHT22;23172;53.550;9.964;2023-03-04T00:26:42;7.70;96.40
37285;DHT22;23172;53.550;9.964;2023-03-04T00:31:45;7.80;96.40
37285;DHT22;23172;53.550;9.964;2023-03-04T00:36:47;7.80;96.40
37285;DHT22;23172;53.550;9.964;2023-03-04T00:41:50;7.70;96.40
37285;DHT22;23172;53.550;9.964;2023-03-04T00:46:52;7.70;96.50
37285;DHT22;23172;53.550;9.964;2023-03-04T00:51:54;7.80;96.40
37285;DHT22;23172;53.550;9.964;2023-03-04T00:56:57;7.80;96.30
37285;DHT22;23172;53.550;9.964;2023-03-04T01:01:59;7.80;96.40
37285;DHT22;23172;53.550;9.964;2023-03-04T01:07:01;7.80;96.40
37285;DHT22;23172;53.550;9.964;2023-03-04T01:12:05;7.90;96.30
37285;DHT22;23172;53.550;9.964;2023-03-04T01:17:07;7.90;96.30
37285;DHT22;23172;53.550;9.964;2023-03-04T01:22:09;7.90;96.30
37285;DHT22;23172;53.550;9.964;2023-03-04T01:27:14;7.90;96.30
37285;DHT22;23172;53.550;9.964;2023-03-04T01:32:16;7.90;96.30
37285;DHT22;23172;53.550;9.964;2023-03-04T01:37:18;7.90;96.30
37285;DHT22;23172;53.550;9.964;2023-03-04T01:42:22;7.90;96.30
37285;DHT22;23172;53.550;9.964;2023-03-04T01:47:28;8.00;96.20
37285;DHT22;23172;53.550;9.964;2023-03-04T01:52:30;7.90;96.20
37285;DHT22;23172;53.550;9.964;2023-03-04T01:57:34;7.90;96.20
37285;DHT22;23172;53.550;9.964;2023-03-04T02:02:36;8.00;96.20
37285;DHT22;23172;53.550;9.964;2023-03-04T02:07:38;7.90;96.30
37285;DHT22;23172;53.550;9.964;2023-03-04T02:12:42;7.80;96.40
37285;DHT22;23172;53.550;9.964;2023-03-04T02:17:44;7.90;96.40
37285;DHT22;23172;53.550;9.964;2023-03-04T02:22:51;7.90;96.40
37285;DHT22;23172;53.550;9.964;2023-03-04T02:27:55;7.90;96.50
37285;DHT22;23172;53.550;9.964;2023-03-04T02:32:57;7.90;96.40
37285;DHT22;23172;53.550;9.964;2023-03-04T02:37:59;7.90;96.50
37285;DHT22;23172;53.550;9.964;2023-03-04T02:43:03;7.90;96.70
37285;DHT22;23172;53.550;9.964;2023-03-04T02:48:05;7.90;96.60
37285;DHT22;23172;53.550;9.964;2023-03-04T02:53:08;7.80;96.70
37285;DHT22;23172;53.550;9.964;2023-03-04T02:58:11;7.90;96.80
37285;DHT22;23172;53.550;9.964;2023-03-04T03:03:13;7.90;96.80
37285;DHT22;23172;53.550;9.964;2023-03-04T03:08:15;7.90;96.90
37285;DHT22;23172;53.550;9.964;2023-03-04T03:13:18;7.90;97.10
37285;DHT22;23172;53.550;9.964;2023-03-04T03:18:20;7.90;97.20
37285;DHT22;23172;53.550;9.964;2023-03-04T03:23:22;7.80;97.20
37285;DHT22;23172;53.550;9.964;2023-03-04T03:28:25;7.80;97.50
37285;DHT22;23172;53.550;9.964;2023-03-04T03:33:27;7.90;97.50
37285;DHT22;23172;53.550;9.964;2023-03-04T03:38:29;7.80;97.50
37285;DHT22;23172;53.550;9.964;2023-03-04T03:43:32;7.80;97.60
37285;DHT22;23172;53.550;9.964;2023-03-04T03:48:34;7.80;97.80
37285;DHT22;23172;53.550;9.964;2023-03-04T03:53:36;7.80;98.00
37285;DHT22;23172;53.550;9.964;2023-03-04T03:58:39;7.80;98.20
37285;DHT22;23172;53.550;9.964;2023-03-04T04:03:41;7.70;98.30
37285;DHT22;23172;53.550;9.964;2023-03-04T04:08:43;7.70;98.50
37285;DHT22;23172;53.550;9.964;2023-03-04T04:13:46;7.70;98.50
37285;DHT22;23172;53.550;9.964;2023-03-04T04:18:48;7.70;98.50
37285;DHT22;23172;53.550;9.964;2023-03-04T04:23:50;7.70;98.50
37285;DHT22;23172;53.550;9.964;2023-03-04T04:28:53;7.70;98.70
37285;DHT22;23172;53.550;9.964;2023-03-04T04:33:55;7.70;98.10
37285;DHT22;23172;53.550;9.964;2023-03-04T04:38:56;7.70;98.00
37285;DHT22;23172;53.550;9.964;2023-03-04T04:44:00;7.70;98.10
37285;DHT22;23172;53.550;9.964;2023-03-04T04:49:02;7.80;98.10
37285;DHT22;23172;53.550;9.964;2023-03-04T04:54:04;7.70;97.80
37285;DHT22;23172;53.550;9.964;2023-03-04T04:59:08;7.70;97.80
37285;DHT22;23172;53.550;9.964;2023-03-04T05:04:09;7.80;97.90
37285;DHT22;23172;53.550;9.964;2023-03-04T05:09:12;7.70;98.10
37285;DHT22;23172;53.550;9.964;2023-03-04T05:14:15;7.80;98.60
37285;DHT22;23172;53.550;9.964;2023-03-04T05:19:17;7.80;98.80
37285;DHT22;23172;53.550;9.964;2023-03-04T05:24:19;7.70;98.90
37285;DHT22;23172;53.550;9.964;2023-03-04T05:29:22;7.70;99.00
37285;DHT22;23172;53.550;9.964;2023-03-04T05:34:24;7.70;99.00
37285;DHT22;23172;53.550;9.964;2023-03-04T05:39:26;7.70;98.90
37285;DHT22;23172;53.550;9.964;2023-03-04T05:44:29;7.60;98.80
37285;DHT22;23172;53.550;9.964;2023-03-04T05:49:31;7.70;98.80
37285;DHT22;23172;53.550;9.964;2023-03-04T05:54:33;7.60;98.00
37285;DHT22;23172;53.550;9.964;2023-03-04T05:59:36;7.40;96.90
37285;DHT22;23172;53.550;9.964;2023-03-04T06:04:38;7.40;96.40
37285;DHT22;23172;53.550;9.964;2023-03-04T06:09:40;7.40;96.40
37285;DHT22;23172;53.550;9.964;2023-03-04T06:14:45;7.50;96.00
37285;DHT22;23172;53.550;9.964;2023-03-04T06:19:47;7.50;95.80
37285;DHT22;23172;53.550;9.964;2023-03-04T06:24:49;7.50;95.60
37285;DHT22;23172;53.550;9.964;2023-03-04T06:29:52;7.60;95.30
37285;DHT22;23172;53.550;9.964;2023-03-04T06:34:54;7.50;94.70
37285;DHT22;23172;53.550;9.964;2023-03-04T06:39:56;7.50;94.70
37285;DHT22;23172;53.550;9.964;2023-03-04T06:45:00;7.50;94.30
37285;DHT22;23172;53.550;9.964;2023-03-04T06:50:02;7.40;94.00
37285;DHT22;23172;53.550;9.964;2023-03-04T06:55:05;7.40;93.40
37285;DHT22;23172;53.550;9.964;2023-03-04T07:00:13;7.40;93.30
37285;DHT22;23172;53.550;9.964;2023-03-04T07:05:15;7.40;93.10
37285;DHT22;23172;53.550;9.964;2023-03-04T07:10:17;7.40;93.10
37285;DHT22;23172;53.550;9.964;2023-03-04T07:15:20;7.40;92.90
37285;DHT22;23172;53.550;9.964;2023-03-04T07:20:22;7.50;92.90
37285;DHT22;23172;53.550;9.964;2023-03-04T07:25:24;7.40;92.70
37285;DHT22;23172;53.550;9.964;2023-03-04T07:30:27;7.50;92.70
37285;DHT22;23172;53.550;9.964;2023-03-04T07:35:29;7.50;92.70
37285;DHT22;23172;53.550;9.964;2023-03-04T07:40:31;7.40;92.70
37285;DHT22;23172;53.550;9.964;2023-03-04T07:45:34;7.40;92.50
37285;DHT22;23172;53.550;9.964;2023-03-04T07:50:37;7.40;92.30
37285;DHT22;23172;53.550;9.964;2023-03-04T07:55:39;7.50;91.90
37285;DHT22;23172;53.550;9.964;2023-03-04T08:00:42;7.50;91.80
37285;DHT22;23172;53.550;9.964;2023-03-04T08:05:44;7.50;91.40
37285;DHT22;23172;53.550;9.964;2023-03-04T08:10:46;7.50;90.90
37285;DHT22;23172;53.550;9.964;2023-03-04T08:15:49;7.50;90.60
37285;DHT22;23172;53.550;9.964;2023-03-04T08:20:51;7.50;90.30
37285;DHT22;23172;53.550;9.964;2023-03-04T08:25:53;7.40;90.00
37285;DHT22;23172;53.550;9.964;2023-03-04T08:30:56;7.50;90.20
37285;DHT22;23172;53.550;9.964;2023-03-04T08:35:58;7.60;90.20
37285;DHT22;23172;53.550;9.964;2023-03-04T08:41:00;7.60;90.30
37285;DHT22;23172;53.550;9.964;2023-03-04T08:46:05;7.60;90.20
37285;DHT22;23172;53.550;9.964;2023-03-04T08:51:08;7.60;90.20
37285;DHT22;23172;53.550;9.964;2023-03-04T08:56:10;7.60;90.10
37285;DHT22;23172;53.550;9.964;2023-03-04T09:01:14;7.50;90.00
37285;DHT22;23172;53.550;9.964;2023-03-04T09:06:18;7.40;88.50
37285;DHT22;23172;53.550;9.964;2023-03-04T09:11:19;7.50;88.50
37285;DHT22;23172;53.550;9.964;2023-03-04T09:16:23;7.60;88.10
37285;DHT22;23172;53.550;9.964;2023-03-04T09:21:25;7.60;86.50
37285;DHT22;23172;53.550;9.964;2023-03-04T09:26:28;7.50;85.70
37285;DHT22;23172;53.550;9.964;2023-03-04T09:31:32;7.50;85.50
37285;DHT22;23172;53.550;9.964;2023-03-04T09:36:34;7.60;85.20
37285;DHT22;23172;53.550;9.964;2023-03-04T09:41:38;7.70;85.10
37285;DHT22;23172;53.550;9.964;2023-03-04T09:46:44;7.70;84.90
37285;DHT22;23172;53.550;9.964;2023-03-04T09:51:53;7.80;85.30
37285;DHT22;23172;53.550;9.964;2023-03-04T09:56:59;7.90;85.40
37285;DHT22;23172;53.550;9.964;2023-03-04T10:02:16;7.90;85.60
37285;DHT22;23172;53.550;9.964;2023-03-04T10:07:25;7.90;85.80
37285;DHT22;23172;53.550;9.964;2023-03-04T10:12:29;7.80;85.90
37285;DHT22;23172;53.550;9.964;2023-03-04T10:17:36;7.90;85.10
37285;DHT22;23172;53.550;9.964;2023-03-04T10:22:43;7.90;84.70
37285;DHT22;23172;53.550;9.964;2023-03-04T10:27:50;7.90;84.00
37285;DHT22;23172;53.550;9.964;2023-03-04T10:32:53;8.10;83.50
37285;DHT22;23172;53.550;9.964;2023-03-04T10:37:55;8.20;82.70
37285;DHT22;23172;53.550;9.964;2023-03-04T10:43:02;8.30;81.60
37285;DHT22;23172;53.550;9.964;2023-03-04T10:48:19;8.40;81.10
37285;DHT22;23172;53.550;9.964;2023-03-04T10:53:29;8.40;80.10
37285;DHT22;23172;53.550;9.964;2023-03-04T10:58:33;8.40;79.70
37285;DHT22;23172;53.550;9.964;2023-03-04T11:03:37;8.60;78.60
37285;DHT22;23172;53.550;9.964;2023-03-04T11:08:39;8.80;76.60
37285;DHT22;23172;53.550;9.964;2023-03-04T11:13:49;8.90;74.50
37285;DHT22;23172;53.550;9.964;2023-03-04T11:18:58;8.90;71.80
37285;DHT22;23172;53.550;9.964;2023-03-04T11:24:02;8.90;70.70
37285;DHT22;23172;53.550;9.964;2023-03-04T11:29:10;9.00;70.20
37285;DHT22;23172;53.550;9.964;2023-03-04T11:34:21;9.10;69.60
37285;DHT22;23172;53.550;9.964;2023-03-04T11:39:30;9.10;68.60
37285;DHT22;23172;53.550;9.964;2023-03-04T11:44:33;8.90;68.90
37285;DHT22;23172;53.550;9.964;2023-03-04T11:49:59;8.80;69.60
37285;DHT22;23172;53.550;9.964;2023-03-04T11:55:23;8.70;70.50
37285;DHT22;23172;53.550;9.964;2023-03-04T12:00:35;8.60;71.30
37285;DHT22;23172;53.550;9.964;2023-03-04T12:05:47;8.80;72.30
37285;DHT22;23172;53.550;9.964;2023-03-04T12:10:57;9.10;71.70
37285;DHT22;23172;53.550;9.964;2023-03-04T12:16:18;9.20;71.20
37285;DHT22;23172;53.550;9.964;2023-03-04T12:21:36;9.20;71.10
37285;DHT22;23172;53.550;9.964;2023-03-04T12:26:44;9.20;71.40
37285;DHT22;23172;53.550;9.964;2023-03-04T12:31:53;9.00;72.10
37285;DHT22;23172;53.550;9.964;2023-03-04T12:37:26;9.00;72.40
37285;DHT22;23172;53.550;9.964;2023-03-04T12:42:42;9.30;71.60
37285;DHT22;23172;53.550;9.964;2023-03-04T12:47:53;9.50;71.00
37285;DHT22;23172;53.550;9.964;2023-03-04T12:53:08;9.30;71.10
37285;DHT22;23172;53.550;9.964;2023-03-04T12:58:17;9.30;70.80
37285;DHT22;23172;53.550;9.964;2023-03-04T13:03:24;9.30;70.60
37285;DHT22;23172;53.550;9.964;2023-03-04T13:08:35;9.20;71.50
37285;DHT22;23172;53.550;9.964;2023-03-04T13:13:40;9.10;72.10
37285;DHT22;23172;53.550;9.964;2023-03-04T13:18:42;9.10;72.40
37285;DHT22;23172;53.550;9.964;2023-03-04T13:23:46;9.40;71.20
37285;DHT22;23172;53.550;9.964;2023-03-04T13:28:52;9.40;69.70
37285;DHT22;23172;53.550;9.964;2023-03-04T13:33:59;9.60;67.10
37285;DHT22;23172;53.550;9.964;2023-03-04T13:39:26;9.60;65.60
37285;DHT22;23172;53.550;9.964;2023-03-04T13:50:32;9.50;64.60
37285;DHT22;23172;53.550;9.964;2023-03-04T13:55:39;9.70;63.70
37285;DHT22;23172;53.550;9.964;2023-03-04T14:00:47;9.50;62.70
37285;DHT22;23172;53.550;9.964;2023-03-04T14:06:15;9.40;62.70
37285;DHT22;23172;53.550;9.964;2023-03-04T14:11:25;9.20;62.80
37285;DHT22;23172;53.550;9.964;2023-03-04T14:16:28;9.10;63.00
37285;DHT22;23172;53.550;9.964;2023-03-04T14:21:33;9.10;62.50
37285;DHT22;23172;53.550;9.964;2023-03-04T14:26:38;9.20;62.80
37285;DHT22;23172;53.550;9.964;2023-03-04T14:31:40;9.50;62.60
37285;DHT22;23172;53.550;9.964;2023-03-04T14:36:43;9.50;62.10
37285;DHT22;23172;53.550;9.964;2023-03-04T14:41:47;9.40;62.60
37285;DHT22;23172;53.550;9.964;2023-03-04T14:46:53;9.20;63.50
37285;DHT22;23172;53.550;9.964;2023-03-04T14:51:55;9.10;64.30
37285;DHT22;23172;53.550;9.964;2023-03-04T14:57:01;9.10;65.00
37285;DHT22;23172;53.550;9.964;2023-03-04T15:02:18;9.10;65.60
37285;DHT22;23172;53.550;9.964;2023-03-04T15:07:29;9.10;65.90
37285;DHT22;23172;53.550;9.964;2023-03-04T15:12:34;8.90;66.00
37285;DHT22;23172;53.550;9.964;2023-03-04T15:17:39;8.80;66.20
37285;DHT22;23172;53.550;9.964;2023-03-04T15:22:56;8.60;66.80
37285;DHT22;23172;53.550;9.964;2023-03-04T15:28:02;8.50;67.30
37285;DHT22;23172;53.550;9.964;2023-03-04T15:33:08;8.50;67.70
37285;DHT22;23172;53.550;9.964;2023-03-04T15:38:11;8.30;68.00
37285;DHT22;23172;53.550;9.964;2023-03-04T15:43:17;8.20;68.20
37285;DHT22;23172;53.550;9.964;2023-03-04T15:48:19;8.20;68.70
37285;DHT22;23172;53.550;9.964;2023-03-04T15:53:26;8.10;69.00
37285;DHT22;23172;53.550;9.964;2023-03-04T15:58:31;8.00;69.30
37285;DHT22;23172;53.550;9.964;2023-03-04T16:03:33;8.00;69.70
37285;DHT22;23172;53.550;9.964;2023-03-04T16:08:35;8.00;70.00
37285;DHT22;23172;53.550;9.964;2023-03-04T16:13:38;7.90;70.60
37285;DHT22;23172;53.550;9.964;2023-03-04T16:18:40;7.90;71.10
37285;DHT22;23172;53.550;9.964;2023-03-04T16:23:45;7.90;71.40
37285;DHT22;23172;53.550;9.964;2023-03-04T16:28:49;7.80;72.10
37285;DHT22;23172;53.550;9.964;2023-03-04T16:33:51;7.80;72.60
37285;DHT22;23172;53.550;9.964;2023-03-04T16:38:54;7.60;73.10
37285;DHT22;23172;53.550;9.964;2023-03-04T16:43:59;7.60;73.40
37285;DHT22;23172;53.550;9.964;2023-03-04T16:49:01;7.60;74.00
37285;DHT22;23172;53.550;9.964;2023-03-04T16:54:03;7.50;74.50
37285;DHT22;23172;53.550;9.964;2023-03-04T16:59:08;7.40;74.90
37285;DHT22;23172;53.550;9.964;2023-03-04T17:04:10;7.30;74.60
37285;DHT22;23172;53.550;9.964;2023-03-04T17:09:12;7.30;74.50
37285;DHT22;23172;53.550;9.964;2023-03-04T17:14:16;7.10;74.40
37285;DHT22;23172;53.550;9.964;2023-03-04T17:19:17;7.10;74.40
37285;DHT22;23172;53.550;9.964;2023-03-04T17:24:19;7.00;74.40
37285;DHT22;23172;53.550;9.964;2023-03-04T17:29:22;7.00;74.90
37285;DHT22;23172;53.550;9.964;2023-03-04T17:34:25;6.90;75.10
37285;DHT22;23172;53.550;9.964;2023-03-04T17:39:27;7.00;75.30
37285;DHT22;23172;53.550;9.964;2023-03-04T17:44:30;6.80;76.20
37285;DHT22;23172;53.550;9.964;2023-03-04T17:49:32;6.70;75.70
37285;DHT22;23172;53.550;9.964;2023-03-04T17:54:34;6.80;75.80
37285;DHT22;23172;53.550;9.964;2023-03-04T17:59:38;6.70;75.60
37285;DHT22;23172;53.550;9.964;2023-03-04T18:04:41;6.70;75.60
37285;DHT22;23172;53.550;9.964;2023-03-04T18:09:43;6.70;75.80
37285;DHT22;23172;53.550;9.964;2023-03-04T18:14:48;6.70;75.80
37285;DHT22;23172;53.550;9.964;2023-03-04T18:19:49;6.70;75.70
37285;DHT22;23172;53.550;9.964;2023-03-04T18:24:51;6.50;76.00
37285;DHT22;23172;53.550;9.964;2023-03-04T18:29:54;6.50;76.20
37285;DHT22;23172;53.550;9.964;2023-03-04T18:34:58;6.40;76.20
37285;DHT22;23172;53.550;9.964;2023-03-04T18:40:00;6.30;75.60
37285;DHT22;23172;53.550;9.964;2023-03-04T18:45:04;6.20;75.40
37285;DHT22;23172;53.550;9.964;2023-03-04T18:50:07;6.10;75.00
37285;DHT22;23172;53.550;9.964;2023-03-04T18:55:10;6.10;74.60
37285;DHT22;23172;53.550;9.964;2023-03-04T19:00:16;6.00;74.40
37285;DHT22;23172;53.550;9.964;2023-03-04T19:05:21;5.90;74.50
37285;DHT22;23172;53.550;9.964;2023-03-04T19:10:24;5.90;74.50
37285;DHT22;23172;53.550;9.964;2023-03-04T19:15:27;5.80;74.50
37285;DHT22;23172;53.550;9.964;2023-03-04T19:20:30;5.80;74.20
37285;DHT22;23172;53.550;9.964;2023-03-04T19:25:32;5.80;74.10
37285;DHT22;23172;53.550;9.964;2023-03-04T19:30:37;5.70;73.90
37285;DHT22;23172;53.550;9.964;2023-03-04T19:35:40;5.70;73.50
37285;DHT22;23172;53.550;9.964;2023-03-04T19:40:42;5.70;73.30
37285;DHT22;23172;53.550;9.964;2023-03-04T19:45:53;5.70;73.10
37285;DHT22;23172;53.550;9.964;2023-03-04T19:50:55;5.80;73.00
37285;DHT22;23172;53.550;9.964;2023-03-04T19:55:57;5.70;72.90
37285;DHT22;23172;53.550;9.964;2023-03-04T20:01:00;5.70;72.60
37285;DHT22;23172;53.550;9.964;2023-03-04T20:06:03;5.70;72.60
37285;DHT22;23172;53.550;9.964;2023-03-04T20:11:06;5.70;72.80
37285;DHT22;23172;53.550;9.964;2023-03-04T20:16:11;5.70;73.10
37285;DHT22;23172;53.550;9.964;2023-03-04T20:21:13;5.80;73.00
37285;DHT22;23172;53.550;9.964;2023-03-04T20:26:15;5.80;72.90
37285;DHT22;23172;53.550;9.964;2023-03-04T20:31:21;5.90;73.00
37285;DHT22;23172;53.550;9.964;2023-03-04T20:36:25;6.00;72.90
37285;DHT22;23172;53.550;9.964;2023-03-04T20:41:27;6.00;72.70
37285;DHT22;23172;53.550;9.964;2023-03-04T20:46:33;6.10;72.60
37285;DHT22;23172;53.550;9.964;2023-03-04T20:51:38;6.10;72.50
37285;DHT22;23172;53.550;9.964;2023-03-04T20:56:40;6.00;72.20
37285;DHT22;23172;53.550;9.964;2023-03-04T21:01:44;6.00;72.30
37285;DHT22;23172;53.550;9.964;2023-03-04T21:06:47;6.10;72.30
37285;DHT22;23172;53.550;9.964;2023-03-04T21:11:51;6.10;73.30
37285;DHT22;23172;53.550;9.964;2023-03-04T21:16:56;6.10;72.60
37285;DHT22;23172;53.550;9.964;2023-03-04T21:21:59;6.10;72.50
37285;DHT22;23172;53.550;9.964;2023-03-04T21:27:02;6.20;72.70
37285;DHT22;23172;53.550;9.964;2023-03-04T21:32:11;6.20;72.50
37285;DHT22;23172;53.550;9.964;2023-03-04T21:37:13;6.20;72.80
37285;DHT22;23172;53.550;9.964;2023-03-04T21:42:15;6.20;73.00
37285;DHT22;23172;53.550;9.964;2023-03-04T21:47:19;6.30;73.10
37285;DHT22;23172;53.550;9.964;2023-03-04T21:52:21;6.20;73.50
37285;DHT22;23172;53.550;9.964;2023-03-04T21:57:23;6.20;73.90
37285;DHT22;23172;53.550;9.964;2023-03-04T22:02:27;6.20;74.30
37285;DHT22;23172;53.550;9.964;2023-03-04T22:07:28;6.30;75.40
37285;DHT22;23172;53.550;9.964;2023-03-04T22:12:30;6.30;75.40
37285;DHT22;23172;53.550;9.964;2023-03-04T22:17:34;6.20;76.70
37285;DHT22;23172;53.550;9.964;2023-03-04T22:22:35;6.30;77.60
37285;DHT22;23172;53.550;9.964;2023-03-04T22:27:37;6.20;78.60
37285;DHT22;23172;53.550;9.964;2023-03-04T22:32:43;6.10;79.80
37285;DHT22;23172;53.550;9.964;2023-03-04T22:37:45;6.10;80.80
37285;DHT22;23172;53.550;9.964;2023-03-04T22:42:47;6.10;81.60
37285;DHT22;23172;53.550;9.964;2023-03-04T22:47:51;6.10;82.90
37285;DHT22;23172;53.550;9.964;2023-03-04T22:52:53;6.10;82.70
37285;DHT22;23172;53.550;9.964;2023-03-04T22:57:55;6.10;82.90
37285;DHT22;23172;53.550;9.964;2023-03-04T23:02:58;6.10;83.20
37285;DHT22;23172;53.550;9.964;2023-03-04T23:08:00;6.20;83.40
37285;DHT22;23172;53.550;9.964;2023-03-04T23:13:02;6.20;84.20
37285;DHT22;23172;53.550;9.964;2023-03-04T23:18:05;6.20;84.50
37285;DHT22;23172;53.550;9.964;2023-03-04T23:23:07;6.20;84.10
37285;DHT22;23172;53.550;9.964;2023-03-04T23:28:09;6.20;83.90
37285;DHT22;23172;53.550;9.964;2023-03-04T23:33:12;6.20;83.70
37285;DHT22;23172;53.550;9.964;2023-03-04T23:38:14;6.20;83.70
37285;DHT22;23172;53.550;9.964;2023-03-04T23:43:16;6.20;83.60
37285;DHT22;23172;53.550;9.964;2023-03-04T23:48:19;6.10;83.30
37285;DHT22;23172;53.550;9.964;2023-03-04T23:53:21;6.10;83.30
37285;DHT22;23172;53.550;9.964;2023-03-04T23:58:22;6.00;83.50
